sensor_id;sensor_type;location;lat;lon;timestamp;pressure;altitude;pressure_sealevel;temperature;humidity
11049;BME280;5577;42.706;23.160;2024-02-16T00:00:58;94698.66;;;1.06;100.00
11049;BME280;5577;42.706;23.160;2024-02-16T00:03:43;94702.00;;;1.07;100.00
11049;BME280;5577;42.706;23.160;2024-02-16T00:06:27;94695.22;;;1.11;100.00
11049;BME280;5577;42.706;23.160;2024-02-16T00:09:11;94700.72;;;1.09;100.00
11049;BME280;5577;42.706;23.160;2024-02-16T00:11:56;94695.44;;;1.14;100.00
11049;BME280;5577;42.706;23.160;2024-02-16T00:14:40;94645.06;;;0.90;100.00
11049;BME280;5577;42.706;23.160;2024-02-16T00:17:24;94695.78;;;1.08;100.00
11049;BME280;5577;42.706;23.160;2024-02-16T00:20:12;94699.94;;;1.09;100.00
11049;BME280;5577;42.706;23.160;2024-02-16T00:22:56;94698.84;;;1.15;100.00
11049;BME280;5577;42.706;23.160;2024-02-16T00:25:40;94697.13;;;1.00;100.00
11049;BME280;5577;42.706;23.160;2024-02-16T00:28:24;94698.91;;;1.05;100.00
11049;BME280;5577;42.706;23.160;2024-02-16T00:31:08;94699.47;;;1.02;100.00
11049;BME280;5577;42.706;23.160;2024-02-16T00:33:53;94701.28;;;1.01;100.00
11049;BME280;5577;42.706;23.160;2024-02-16T00:36:36;94709.88;;;1.02;100.00
11049;BME280;5577;42.706;23.160;2024-02-16T00:39:20;94707.28;;;1.02;100.00
11049;BME280;5577;42.706;23.160;2024-02-16T00:42:05;94696.59;;;0.98;100.00
11049;BME280;5577;42.706;23.160;2024-02-16T00:44:49;94702.59;;;1.04;100.00
11049;BME280;5577;42.706;23.160;2024-02-16T00:47:34;94711.94;;;1.05;100.00
11049;BME280;5577;42.706;23.160;2024-02-16T00:50:18;94702.59;;;0.99;100.00
11049;BME280;5577;42.706;23.160;2024-02-16T00:53:02;94665.50;;;0.78;100.00
11049;BME280;5577;42.706;23.160;2024-02-16T00:55:46;94706.19;;;1.08;100.00
11049;BME280;5577;42.706;23.160;2024-02-16T00:58:30;94696.25;;;1.15;100.00
11049;BME280;5577;42.706;23.160;2024-02-16T01:01:15;94699.34;;;1.17;100.00
11049;BME280;5577;42.706;23.160;2024-02-16T01:04:00;94697.84;;;1.06;100.00
11049;BME280;5577;42.706;23.160;2024-02-16T01:06:44;94693.94;;;1.08;100.00
11049;BME280;5577;42.706;23.160;2024-02-16T01:09:28;94703.31;;;1.09;100.00
11049;BME280;5577;42.706;23.160;2024-02-16T01:12:12;94697.25;;;1.19;100.00
11049;BME280;5577;42.706;23.160;2024-02-16T01:14:56;94693.81;;;1.23;100.00
11049;BME280;5577;42.706;23.160;2024-02-16T01:17:40;94687.53;;;1.24;100.00
11049;BME280;5577;42.706;23.160;2024-02-16T01:20:24;94689.63;;;1.22;100.00
11049;BME280;5577;42.706;23.160;2024-02-16T01:23:08;94685.81;;;1.15;100.00
11049;BME280;5577;42.706;23.160;2024-02-16T01:25:52;94693.75;;;1.28;100.00
11049;BME280;5577;42.706;23.160;2024-02-16T01:28:36;94677.94;;;1.20;100.00
11049;BME280;5577;42.706;23.160;2024-02-16T01:31:20;94682.53;;;1.28;100.00
11049;BME280;5577;42.706;23.160;2024-02-16T01:34:04;94684.34;;;1.32;100.00
11049;BME280;5577;42.706;23.160;2024-02-16T01:36:48;94675.78;;;1.27;100.00
11049;BME280;5577;42.706;23.160;2024-02-16T01:39:32;94686.53;;;1.20;100.00
11049;BME280;5577;42.706;23.160;2024-02-16T01:42:16;94672.97;;;1.23;100.00
11049;BME280;5577;42.706;23.160;2024-02-16T01:45:00;94674.22;;;1.26;100.00
11049;BME280;5577;42.706;23.160;2024-02-16T01:47:46;94679.66;;;1.29;100.00
11049;BME280;5577;42.706;23.160;2024-02-16T01:50:31;94674.25;;;1.21;100.00
11049;BME280;5577;42.706;23.160;2024-02-16T01:53:17;94669.16;;;1.11;100.00
11049;BME280;5577;42.706;23.160;2024-02-16T01:56:02;94669.38;;;1.14;100.00
11049;BME280;5577;42.706;23.160;2024-02-16T01:58:47;94667.31;;;1.11;100.00
11049;BME280;5577;42.706;23.160;2024-02-16T02:01:31;94665.94;;;1.19;100.00
11049;BME280;5577;42.706;23.160;2024-02-16T02:04:15;94660.91;;;1.27;100.00
11049;BME280;5577;42.706;23.160;2024-02-16T02:06:59;94668.28;;;1.20;100.00
11049;BME280;5577;42.706;23.160;2024-02-16T02:09:43;94665.72;;;1.15;100.00
11049;BME280;5577;42.706;23.160;2024-02-16T02:12:27;94668.13;;;1.07;100.00
11049;BME280;5577;42.706;23.160;2024-02-16T02:15:11;94660.16;;;0.93;100.00
11049;BME280;5577;42.706;23.160;2024-02-16T02:17:55;94672.19;;;0.89;100.00
11049;BME280;5577;42.706;23.160;2024-02-16T02:20:42;94669.44;;;1.09;100.00
11049;BME280;5577;42.706;23.160;2024-02-16T02:23:26;94675.66;;;1.08;100.00
11049;BME280;5577;42.706;23.160;2024-02-16T02:26:14;94669.16;;;1.11;100.00
11049;BME280;5577;42.706;23.160;2024-02-16T02:28:58;94670.19;;;1.10;100.00
11049;BME280;5577;42.706;23.160;2024-02-16T02:31:42;94674.19;;;1.02;100.00
11049;BME280;5577;42.706;23.160;2024-02-16T02:34:26;94670.72;;;1.07;100.00
11049;BME280;5577;42.706;23.160;2024-02-16T02:37:10;94677.06;;;0.96;100.00
11049;BME280;5577;42.706;23.160;2024-02-16T02:39:54;94681.47;;;1.00;100.00
11049;BME280;5577;42.706;23.160;2024-02-16T02:42:38;94675.25;;;0.96;100.00
11049;BME280;5577;42.706;23.160;2024-02-16T02:45:22;94669.34;;;0.86;100.00
11049;BME280;5577;42.706;23.160;2024-02-16T02:48:06;94677.31;;;0.99;100.00
11049;BME280;5577;42.706;23.160;2024-02-16T02:50:51;94670.19;;;1.10;100.00
11049;BME280;5577;42.706;23.160;2024-02-16T02:53:35;94667.38;;;1.06;100.00
11049;BME280;5577;42.706;23.160;2024-02-16T02:56:19;94675.22;;;1.01;100.00
11049;BME280;5577;42.706;23.160;2024-02-16T02:59:03;94678.56;;;1.07;100.00
11049;BME280;5577;42.706;23.160;2024-02-16T03:01:49;94675.72;;;1.03;100.00
11049;BME280;5577;42.706;23.160;2024-02-16T03:04:34;94673.91;;;1.04;100.00
11049;BME280;5577;42.706;23.160;2024-02-16T03:07:18;94674.94;;;1.03;100.00
11049;BME280;5577;42.706;23.160;2024-02-16T03:10:02;94629.88;;;0.69;100.00
11049;BME280;5577;42.706;23.160;2024-02-16T03:12:47;94668.50;;;0.95;100.00
11049;BME280;5577;42.706;23.160;2024-02-16T03:15:33;94666.19;;;0.89;100.00
11049;BME280;5577;42.706;23.160;2024-02-16T03:18:19;94674.81;;;0.84;100.00
11049;BME280;5577;42.706;23.160;2024-02-16T03:21:03;94678.00;;;0.81;100.00
11049;BME280;5577;42.706;23.160;2024-02-16T03:23:47;94681.13;;;0.78;100.00
11049;BME280;5577;42.706;23.160;2024-02-16T03:26:31;94679.84;;;0.76;100.00
11049;BME280;5577;42.706;23.160;2024-02-16T03:29:15;94679.00;;;0.80;100.00
11049;BME280;5577;42.706;23.160;2024-02-16T03:31:59;94661.91;;;0.69;100.00
11049;BME280;5577;42.706;23.160;2024-02-16T03:34:43;94671.44;;;0.84;100.00
11049;BME280;5577;42.706;23.160;2024-02-16T03:37:28;94677.81;;;1.01;100.00
11049;BME280;5577;42.706;23.160;2024-02-16T03:40:12;94685.56;;;1.11;100.00
11049;BME280;5577;42.706;23.160;2024-02-16T03:42:56;94676.53;;;0.99;100.00
11049;BME280;5577;42.706;23.160;2024-02-16T03:45:41;94677.13;;;0.91;100.00
11049;BME280;5577;42.706;23.160;2024-02-16T03:48:25;94677.88;;;0.91;100.00
11049;BME280;5577;42.706;23.160;2024-02-16T03:51:08;94682.63;;;0.89;100.00
11049;BME280;5577;42.706;23.160;2024-02-16T03:53:52;94680.22;;;0.93;100.00
11049;BME280;5577;42.706;23.160;2024-02-16T03:56:36;94679.66;;;1.01;100.00
11049;BME280;5577;42.706;23.160;2024-02-16T03:59:20;94678.34;;;0.98;100.00
11049;BME280;5577;42.706;23.160;2024-02-16T04:02:05;94676.88;;;0.87;100.00
11049;BME280;5577;42.706;23.160;2024-02-16T04:04:49;94678.19;;;0.90;100.00
11049;BME280;5577;42.706;23.160;2024-02-16T04:07:34;94676.88;;;0.87;100.00
11049;BME280;5577;42.706;23.160;2024-02-16T04:10:17;94668.38;;;0.72;100.00
11049;BME280;5577;42.706;23.160;2024-02-16T04:13:02;94670.53;;;0.65;100.00
11049;BME280;5577;42.706;23.160;2024-02-16T04:15:46;94659.63;;;0.58;100.00
11049;BME280;5577;42.706;23.160;2024-02-16T04:18:30;94671.88;;;0.57;100.00
11049;BME280;5577;42.706;23.160;2024-02-16T04:21:14;94670.88;;;0.53;100.00
11049;BME280;5577;42.706;23.160;2024-02-16T04:23:58;94674.03;;;0.45;100.00
11049;BME280;5577;42.706;23.160;2024-02-16T04:26:42;94676.34;;;0.52;100.00
11049;BME280;5577;42.706;23.160;2024-02-16T04:29:26;94674.28;;;0.44;100.00
11049;BME280;5577;42.706;23.160;2024-02-16T04:32:09;94685.72;;;0.53;100.00
11049;BME280;5577;42.706;23.160;2024-02-16T04:34:53;94677.44;;;0.46;100.00
11049;BME280;5577;42.706;23.160;2024-02-16T04:37:39;94679.00;;;0.42;100.00
11049;BME280;5577;42.706;23.160;2024-02-16T04:40:23;94689.44;;;0.42;100.00
11049;BME280;5577;42.706;23.160;2024-02-16T04:43:07;94684.00;;;0.33;100.00
11049;BME280;5577;42.706;23.160;2024-02-16T04:45:51;94674.13;;;0.30;100.00
11049;BME280;5577;42.706;23.160;2024-02-16T04:48:36;94679.66;;;0.19;100.00
11049;BME280;5577;42.706;23.160;2024-02-16T04:51:20;94673.94;;;0.17;100.00
11049;BME280;5577;42.706;23.160;2024-02-16T04:54:04;94677.31;;;0.17;100.00
11049;BME280;5577;42.706;23.160;2024-02-16T04:56:48;94646.97;;;-0.08;100.00
11049;BME280;5577;42.706;23.160;2024-02-16T04:59:32;94688.50;;;0.18;100.00
11049;BME280;5577;42.706;23.160;2024-02-16T05:02:16;94594.53;;;-0.35;100.00
11049;BME280;5577;42.706;23.160;2024-02-16T05:05:00;94691.28;;;0.31;100.00
11049;BME280;5577;42.706;23.160;2024-02-16T05:07:48;94693.19;;;0.21;100.00
11049;BME280;5577;42.706;23.160;2024-02-16T05:10:33;94700.25;;;0.15;100.00
11049;BME280;5577;42.706;23.160;2024-02-16T05:13:17;94699.19;;;0.16;100.00
11049;BME280;5577;42.706;23.160;2024-02-16T05:16:01;94701.56;;;0.13;100.00
11049;BME280;5577;42.706;23.160;2024-02-16T05:18:45;94708.31;;;0.08;100.00
11049;BME280;5577;42.706;23.160;2024-02-16T05:21:29;94708.13;;;-0.05;100.00
11049;BME280;5577;42.706;23.160;2024-02-16T05:24:13;94711.75;;;-0.01;100.00
11049;BME280;5577;42.706;23.160;2024-02-16T05:26:57;94668.13;;;-0.29;100.00
11049;BME280;5577;42.706;23.160;2024-02-16T05:29:42;94714.84;;;0.06;100.00
11049;BME280;5577;42.706;23.160;2024-02-16T05:32:26;94701.34;;;-0.01;100.00
11049;BME280;5577;42.706;23.160;2024-02-16T05:35:10;94714.59;;;0.03;100.00
11049;BME280;5577;42.706;23.160;2024-02-16T05:37:58;94721.34;;;0.14;100.00
11049;BME280;5577;42.706;23.160;2024-02-16T05:40:44;94705.50;;;0.00;100.00
11049;BME280;5577;42.706;23.160;2024-02-16T05:43:37;94723.63;;;0.20;100.00
11049;BME280;5577;42.706;23.160;2024-02-16T05:46:24;94721.25;;;0.34;100.00
11049;BME280;5577;42.706;23.160;2024-02-16T05:49:08;94726.66;;;0.47;100.00
11049;BME280;5577;42.706;23.160;2024-02-16T05:51:54;94721.06;;;0.64;100.00
11049;BME280;5577;42.706;23.160;2024-02-16T05:54:57;94727.31;;;1.06;100.00
11049;BME280;5577;42.706;23.160;2024-02-16T05:57:41;94686.34;;;1.12;100.00
11049;BME280;5577;42.706;23.160;2024-02-16T06:00:25;94725.84;;;1.57;100.00
11049;BME280;5577;42.706;23.160;2024-02-16T06:03:11;94724.97;;;1.67;100.00
11049;BME280;5577;42.706;23.160;2024-02-16T06:05:55;94729.38;;;1.71;100.00
11049;BME280;5577;42.706;23.160;2024-02-16T06:08:39;94740.97;;;1.84;100.00
11049;BME280;5577;42.706;23.160;2024-02-16T06:11:23;94735.38;;;2.19;100.00
11049;BME280;5577;42.706;23.160;2024-02-16T06:14:07;94737.13;;;2.28;100.00
11049;BME280;5577;42.706;23.160;2024-02-16T06:16:51;94735.00;;;2.30;100.00
11049;BME280;5577;42.706;23.160;2024-02-16T06:19:35;94739.16;;;2.31;100.00
11049;BME280;5577;42.706;23.160;2024-02-16T06:22:19;94733.06;;;2.41;100.00
11049;BME280;5577;42.706;23.160;2024-02-16T06:25:03;94726.53;;;2.38;100.00
11049;BME280;5577;42.706;23.160;2024-02-16T06:27:47;94734.31;;;2.43;100.00
11049;BME280;5577;42.706;23.160;2024-02-16T06:30:31;94728.78;;;2.68;100.00
11049;BME280;5577;42.706;23.160;2024-02-16T06:33:15;94734.84;;;2.82;100.00
11049;BME280;5577;42.706;23.160;2024-02-16T06:35:59;94726.03;;;2.97;100.00
11049;BME280;5577;42.706;23.160;2024-02-16T06:38:43;94720.16;;;3.05;100.00
11049;BME280;5577;42.706;23.160;2024-02-16T06:41:27;94726.63;;;3.26;100.00
11049;BME280;5577;42.706;23.160;2024-02-16T06:44:12;94736.03;;;3.27;100.00
11049;BME280;5577;42.706;23.160;2024-02-16T06:46:56;94734.75;;;3.43;100.00
11049;BME280;5577;42.706;23.160;2024-02-16T06:49:40;94730.59;;;3.56;100.00
11049;BME280;5577;42.706;23.160;2024-02-16T06:52:24;94728.97;;;3.73;100.00
11049;BME280;5577;42.706;23.160;2024-02-16T06:55:08;94732.13;;;4.02;100.00
11049;BME280;5577;42.706;23.160;2024-02-16T06:57:52;94729.13;;;4.09;100.00
11049;BME280;5577;42.706;23.160;2024-02-16T07:00:36;94723.88;;;4.22;100.00
11049;BME280;5577;42.706;23.160;2024-02-16T07:03:20;94735.44;;;4.48;100.00
11049;BME280;5577;42.706;23.160;2024-02-16T07:06:04;94736.50;;;4.61;100.00
11049;BME280;5577;42.706;23.160;2024-02-16T07:08:51;94732.59;;;4.72;100.00
11049;BME280;5577;42.706;23.160;2024-02-16T07:11:35;94735.47;;;4.97;100.00
11049;BME280;5577;42.706;23.160;2024-02-16T07:14:19;94725.75;;;5.20;100.00
11049;BME280;5577;42.706;23.160;2024-02-16T07:17:03;94732.03;;;5.32;100.00
11049;BME280;5577;42.706;23.160;2024-02-16T07:19:47;94728.03;;;5.35;100.00
11049;BME280;5577;42.706;23.160;2024-02-16T07:22:31;94731.84;;;5.51;100.00
11049;BME280;5577;42.706;23.160;2024-02-16T07:25:17;94690.56;;;5.43;100.00
11049;BME280;5577;42.706;23.160;2024-02-16T07:28:01;94692.09;;;5.66;100.00
11049;BME280;5577;42.706;23.160;2024-02-16T07:30:45;94728.66;;;6.07;100.00
11049;BME280;5577;42.706;23.160;2024-02-16T07:33:28;94725.50;;;6.35;100.00
11049;BME280;5577;42.706;23.160;2024-02-16T07:36:12;94733.41;;;6.44;100.00
11049;BME280;5577;42.706;23.160;2024-02-16T07:38:58;94738.69;;;6.44;100.00
11049;BME280;5577;42.706;23.160;2024-02-16T07:41:42;94739.66;;;6.56;100.00
11049;BME280;5577;42.706;23.160;2024-02-16T07:44:28;94738.94;;;6.81;100.00
11049;BME280;5577;42.706;23.160;2024-02-16T07:47:12;94737.69;;;6.79;100.00
11049;BME280;5577;42.706;23.160;2024-02-16T07:49:56;94731.53;;;7.00;98.10
11049;BME280;5577;42.706;23.160;2024-02-16T07:52:40;94725.66;;;7.03;96.43
11049;BME280;5577;42.706;23.160;2024-02-16T07:55:23;94735.56;;;7.32;91.73
11049;BME280;5577;42.706;23.160;2024-02-16T07:58:08;94732.63;;;7.59;92.85
11049;BME280;5577;42.706;23.160;2024-02-16T08:00:53;94731.19;;;7.78;88.98
11049;BME280;5577;42.706;23.160;2024-02-16T08:03:40;94740.59;;;7.96;84.39
11049;BME280;5577;42.706;23.160;2024-02-16T08:06:25;94745.88;;;7.96;83.11
11049;BME280;5577;42.706;23.160;2024-02-16T08:09:09;94748.69;;;7.91;84.36
11049;BME280;5577;42.706;23.160;2024-02-16T08:11:54;94744.84;;;7.89;83.72
11049;BME280;5577;42.706;23.160;2024-02-16T08:14:39;94702.09;;;7.49;85.70
11049;BME280;5577;42.706;23.160;2024-02-16T08:17:26;94741.25;;;7.85;86.53
11049;BME280;5577;42.706;23.160;2024-02-16T08:20:10;94739.63;;;8.18;83.98
11049;BME280;5577;42.706;23.160;2024-02-16T08:22:54;94747.69;;;8.13;79.82
11049;BME280;5577;42.706;23.160;2024-02-16T08:25:38;94735.47;;;8.08;85.29
11049;BME280;5577;42.706;23.160;2024-02-16T08:28:22;94741.38;;;8.51;84.29
11049;BME280;5577;42.706;23.160;2024-02-16T08:31:06;94747.13;;;8.82;78.13
11049;BME280;5577;42.706;23.160;2024-02-16T08:33:50;94740.13;;;9.07;77.67
11049;BME280;5577;42.706;23.160;2024-02-16T08:36:34;94752.59;;;9.07;78.42
11049;BME280;5577;42.706;23.160;2024-02-16T08:39:18;94748.31;;;8.94;78.10
11049;BME280;5577;42.706;23.160;2024-02-16T08:42:04;94738.38;;;8.91;76.44
11049;BME280;5577;42.706;23.160;2024-02-16T08:44:48;94745.75;;;9.06;76.83
11049;BME280;5577;42.706;23.160;2024-02-16T08:47:33;94745.63;;;9.23;75.19
11049;BME280;5577;42.706;23.160;2024-02-16T08:50:17;94758.19;;;9.46;72.85
11049;BME280;5577;42.706;23.160;2024-02-16T08:53:01;94748.84;;;9.69;72.50
11049;BME280;5577;42.706;23.160;2024-02-16T08:55:45;94757.22;;;10.36;67.88
11049;BME280;5577;42.706;23.160;2024-02-16T08:58:30;94763.38;;;11.36;64.85
11049;BME280;5577;42.706;23.160;2024-02-16T09:01:14;94757.03;;;11.53;61.73
11049;BME280;5577;42.706;23.160;2024-02-16T09:03:59;94757.34;;;12.19;58.84
11049;BME280;5577;42.706;23.160;2024-02-16T09:06:44;94759.25;;;12.49;55.73
11049;BME280;5577;42.706;23.160;2024-02-16T09:09:28;94745.13;;;12.76;54.52
11049;BME280;5577;42.706;23.160;2024-02-16T09:12:12;94759.16;;;12.92;54.22
11049;BME280;5577;42.706;23.160;2024-02-16T09:14:56;94763.28;;;13.74;52.30
11049;BME280;5577;42.706;23.160;2024-02-16T09:17:41;94747.44;;;14.00;50.81
11049;BME280;5577;42.706;23.160;2024-02-16T09:20:25;94759.91;;;14.34;49.35
11049;BME280;5577;42.706;23.160;2024-02-16T09:23:10;94767.13;;;14.15;48.68
11049;BME280;5577;42.706;23.160;2024-02-16T09:25:54;94747.66;;;14.30;48.54
11049;BME280;5577;42.706;23.160;2024-02-16T09:28:41;94769.06;;;15.31;46.80
11049;BME280;5577;42.706;23.160;2024-02-16T09:31:25;94764.59;;;15.12;46.44
11049;BME280;5577;42.706;23.160;2024-02-16T09:34:10;94767.56;;;15.30;46.87
11049;BME280;5577;42.706;23.160;2024-02-16T09:36:54;94760.97;;;15.76;44.70
11049;BME280;5577;42.706;23.160;2024-02-16T09:39:37;94765.16;;;15.77;44.46
11049;BME280;5577;42.706;23.160;2024-02-16T09:42:23;94765.53;;;15.75;44.25
11049;BME280;5577;42.706;23.160;2024-02-16T09:45:11;94755.44;;;15.10;44.74
11049;BME280;5577;42.706;23.160;2024-02-16T09:47:57;94762.94;;;15.27;45.41
11049;BME280;5577;42.706;23.160;2024-02-16T09:50:42;94752.44;;;16.66;42.39
11049;BME280;5577;42.706;23.160;2024-02-16T09:53:27;94723.78;;;17.13;40.31
11049;BME280;5577;42.706;23.160;2024-02-16T09:56:11;94748.19;;;17.66;38.71
11049;BME280;5577;42.706;23.160;2024-02-16T09:58:55;94744.44;;;17.78;38.33
11049;BME280;5577;42.706;23.160;2024-02-16T10:01:39;94744.88;;;17.26;39.41
11049;BME280;5577;42.706;23.160;2024-02-16T10:04:23;94719.09;;;17.54;38.67
11049;BME280;5577;42.706;23.160;2024-02-16T10:07:07;94735.66;;;17.84;39.38
11049;BME280;5577;42.706;23.160;2024-02-16T10:09:51;94726.41;;;17.68;38.76
11049;BME280;5577;42.706;23.160;2024-02-16T10:12:35;94726.88;;;16.32;40.41
11049;BME280;5577;42.706;23.160;2024-02-16T10:15:20;94718.00;;;17.08;40.07
11049;BME280;5577;42.706;23.160;2024-02-16T10:18:06;94691.34;;;18.04;37.19
11049;BME280;5577;42.706;23.160;2024-02-16T10:20:50;94713.91;;;18.00;38.28
11049;BME280;5577;42.706;23.160;2024-02-16T10:23:34;94715.22;;;19.00;35.84
11049;BME280;5577;42.706;23.160;2024-02-16T10:26:18;94708.06;;;20.08;34.51
11049;BME280;5577;42.706;23.160;2024-02-16T10:29:17;94706.41;;;20.35;34.45
11049;BME280;5577;42.706;23.160;2024-02-16T10:32:03;94695.56;;;19.70;34.20
11049;BME280;5577;42.706;23.160;2024-02-16T10:34:48;94700.59;;;19.54;35.46
11049;BME280;5577;42.706;23.160;2024-02-16T10:37:33;94702.63;;;20.26;34.46
11049;BME280;5577;42.706;23.160;2024-02-16T10:40:21;94692.56;;;20.37;33.35
11049;BME280;5577;42.706;23.160;2024-02-16T10:43:08;94680.63;;;20.41;34.11
11049;BME280;5577;42.706;23.160;2024-02-16T10:45:53;94693.00;;;21.67;32.30
11049;BME280;5577;42.706;23.160;2024-02-16T10:48:39;94689.91;;;22.02;31.53
11049;BME280;5577;42.706;23.160;2024-02-16T10:54:30;94677.06;;;19.86;33.97
11049;BME280;5577;42.706;23.160;2024-02-16T10:57:16;94677.75;;;20.66;32.72
11049;BME280;5577;42.706;23.160;2024-02-16T11:00:00;94669.94;;;21.29;32.62
11049;BME280;5577;42.706;23.160;2024-02-16T11:02:55;94669.22;;;20.78;32.15
11049;BME280;5577;42.706;23.160;2024-02-16T11:05:41;94670.19;;;21.42;31.88
11049;BME280;5577;42.706;23.160;2024-02-16T11:08:37;94672.78;;;22.42;30.42
11049;BME280;5577;42.706;23.160;2024-02-16T11:11:25;94673.19;;;22.41;30.71
11049;BME280;5577;42.706;23.160;2024-02-16T11:14:15;94668.28;;;22.36;29.95
11049;BME280;5577;42.706;23.160;2024-02-16T11:17:01;94666.59;;;20.16;32.28
11049;BME280;5577;42.706;23.160;2024-02-16T11:19:46;94661.84;;;20.34;32.45
11049;BME280;5577;42.706;23.160;2024-02-16T11:22:31;94662.03;;;20.03;32.91
11049;BME280;5577;42.706;23.160;2024-02-16T11:25:15;94653.34;;;21.34;31.46
11049;BME280;5577;42.706;23.160;2024-02-16T11:27:59;94656.59;;;20.17;32.55
11049;BME280;5577;42.706;23.160;2024-02-16T11:30:43;94645.19;;;21.04;31.95
11049;BME280;5577;42.706;23.160;2024-02-16T11:33:27;94646.31;;;20.59;31.53
11049;BME280;5577;42.706;23.160;2024-02-16T11:36:12;94638.88;;;21.18;31.81
11049;BME280;5577;42.706;23.160;2024-02-16T11:38:56;94637.09;;;20.57;31.81
11049;BME280;5577;42.706;23.160;2024-02-16T11:41:40;94637.03;;;18.28;35.11
11049;BME280;5577;42.706;23.160;2024-02-16T11:44:24;94640.75;;;16.99;36.54
11049;BME280;5577;42.706;23.160;2024-02-16T11:47:08;94633.06;;;16.91;37.31
11049;BME280;5577;42.706;23.160;2024-02-16T11:50:08;94637.00;;;16.53;38.39
11049;BME280;5577;42.706;23.160;2024-02-16T11:52:55;94628.19;;;17.07;37.65
11049;BME280;5577;42.706;23.160;2024-02-16T11:55:39;94617.00;;;16.40;38.50
11049;BME280;5577;42.706;23.160;2024-02-16T11:58:23;94629.47;;;16.66;38.33
11049;BME280;5577;42.706;23.160;2024-02-16T12:01:10;94620.56;;;16.48;39.16
11049;BME280;5577;42.706;23.160;2024-02-16T12:03:54;94623.88;;;15.61;40.17
11049;BME280;5577;42.706;23.160;2024-02-16T12:06:38;94616.09;;;14.87;41.65
11049;BME280;5577;42.706;23.160;2024-02-16T12:09:23;94628.47;;;14.50;42.51
11049;BME280;5577;42.706;23.160;2024-02-16T12:12:08;94621.00;;;14.85;41.71
11049;BME280;5577;42.706;23.160;2024-02-16T12:14:54;94620.41;;;15.94;39.27
11049;BME280;5577;42.706;23.160;2024-02-16T12:17:38;94612.41;;;16.88;38.29
11049;BME280;5577;42.706;23.160;2024-02-16T12:20:22;94616.47;;;16.64;38.44
11049;BME280;5577;42.706;23.160;2024-02-16T12:23:12;94596.66;;;17.48;37.55
11049;BME280;5577;42.706;23.160;2024-02-16T12:26:00;94611.31;;;19.32;35.44
11049;BME280;5577;42.706;23.160;2024-02-16T12:28:44;94605.66;;;19.89;33.88
11049;BME280;5577;42.706;23.160;2024-02-16T12:31:29;94619.06;;;18.53;34.80
11049;BME280;5577;42.706;23.160;2024-02-16T12:34:14;94616.72;;;18.17;35.13
11049;BME280;5577;42.706;23.160;2024-02-16T12:36:57;94606.94;;;19.59;34.19
11049;BME280;5577;42.706;23.160;2024-02-16T12:39:41;94601.25;;;21.11;32.20
11049;BME280;5577;42.706;23.160;2024-02-16T12:42:25;94601.56;;;21.83;30.46
11049;BME280;5577;42.706;23.160;2024-02-16T12:45:09;94600.28;;;21.95;30.66
11049;BME280;5577;42.706;23.160;2024-02-16T12:47:54;94594.75;;;22.05;30.06
11049;BME280;5577;42.706;23.160;2024-02-16T12:50:38;94601.66;;;22.33;29.63
11049;BME280;5577;42.706;23.160;2024-02-16T12:53:22;94596.84;;;23.13;28.54
11049;BME280;5577;42.706;23.160;2024-02-16T12:56:09;94600.63;;;23.78;27.84
11049;BME280;5577;42.706;23.160;2024-02-16T12:58:53;94596.75;;;22.97;28.93
11049;BME280;5577;42.706;23.160;2024-02-16T13:01:37;94600.44;;;21.84;30.35
11049;BME280;5577;42.706;23.160;2024-02-16T13:04:21;94596.41;;;23.57;28.63
11049;BME280;5577;42.706;23.160;2024-02-16T13:07:06;94592.19;;;25.52;26.34
11049;BME280;5577;42.706;23.160;2024-02-16T13:09:50;94589.28;;;26.50;25.31
11049;BME280;5577;42.706;23.160;2024-02-16T13:12:35;94594.75;;;25.31;25.92
11049;BME280;5577;42.706;23.160;2024-02-16T13:15:20;94588.03;;;25.35;25.29
11049;BME280;5577;42.706;23.160;2024-02-16T13:18:04;94583.94;;;24.50;25.89
11049;BME280;5577;42.706;23.160;2024-02-16T13:20:49;94584.09;;;24.11;26.64
11049;BME280;5577;42.706;23.160;2024-02-16T13:23:33;94588.50;;;22.85;27.58
11049;BME280;5577;42.706;23.160;2024-02-16T13:26:17;94582.63;;;22.67;28.24
11049;BME280;5577;42.706;23.160;2024-02-16T13:29:01;94585.44;;;22.10;29.11
11049;BME280;5577;42.706;23.160;2024-02-16T13:31:45;94578.53;;;22.59;28.66
11049;BME280;5577;42.706;23.160;2024-02-16T13:34:29;94584.91;;;21.92;28.98
11049;BME280;5577;42.706;23.160;2024-02-16T13:37:14;94547.91;;;22.19;28.63
11049;BME280;5577;42.706;23.160;2024-02-16T13:39:57;94582.03;;;23.44;27.78
11049;BME280;5577;42.706;23.160;2024-02-16T13:42:42;94566.97;;;23.63;27.80
11049;BME280;5577;42.706;23.160;2024-02-16T13:45:26;94574.47;;;23.36;28.05
11049;BME280;5577;42.706;23.160;2024-02-16T13:48:10;94579.06;;;21.00;30.50
11049;BME280;5577;42.706;23.160;2024-02-16T13:50:54;94581.44;;;19.13;32.79
11049;BME280;5577;42.706;23.160;2024-02-16T13:53:38;94580.91;;;17.32;35.68
11049;BME280;5577;42.706;23.160;2024-02-16T13:56:22;94587.53;;;16.30;38.23
11049;BME280;5577;42.706;23.160;2024-02-16T13:59:06;94584.53;;;17.78;36.04
11049;BME280;5577;42.706;23.160;2024-02-16T14:01:53;94580.38;;;18.30;35.28
11049;BME280;5577;42.706;23.160;2024-02-16T14:04:38;94570.16;;;17.22;37.25
11049;BME280;5577;42.706;23.160;2024-02-16T14:07:22;94588.44;;;16.44;38.47
11049;BME280;5577;42.706;23.160;2024-02-16T14:10:06;94574.72;;;17.14;37.14
11049;BME280;5577;42.706;23.160;2024-02-16T14:12:51;94579.53;;;16.87;37.96
11049;BME280;5577;42.706;23.160;2024-02-16T14:15:36;94576.78;;;16.70;38.10
11049;BME280;5577;42.706;23.160;2024-02-16T14:18:20;94577.09;;;17.33;37.35
11049;BME280;5577;42.706;23.160;2024-02-16T14:21:04;94574.25;;;18.19;35.64
11049;BME280;5577;42.706;23.160;2024-02-16T14:23:48;94581.91;;;18.13;36.01
11049;BME280;5577;42.706;23.160;2024-02-16T14:26:32;94584.94;;;18.05;36.13
11049;BME280;5577;42.706;23.160;2024-02-16T14:29:16;94585.06;;;17.23;37.13
11049;BME280;5577;42.706;23.160;2024-02-16T14:32:00;94574.25;;;16.40;38.57
11049;BME280;5577;42.706;23.160;2024-02-16T14:34:44;94580.09;;;16.49;39.08